Piscataway, NJ (08854)

1:02 PM EST on March 04, 2015 (GMT -0500)
Piscataway | Change Station
CLOSE
Current Station
Personal Weather Station
Location: Piscataway Township, NJ
Elevation: 82 ft
Nearby Weather Stations
Active Advisory: Winter Storm Warning Active Notice: Public Information Statement

Elev 82 ft 40.55 °N, 74.45 °W | Updated 8 minutes ago

Overcast
Overcast
42.5 °F
Feels Like 42 °F
N
3.0
Wind Variable Wind from SSW
Gusts 5.0 mph

Today
High -- | Low -- °F
--% Chance of Precip.
Yesterday
High -- | Low -- °F
Precip. -- in
6:27 AM 5:52 PM
Waxing Gibbous, 99% visible
Pressure 29.83 in
Visibility 4.0 miles
Clouds Few 7500 ft
Overcast 9000 ft
Windchill 42 °F
Dew Point 40 °F
Humidity 90%
Rainfall 0.62 in
Snow Depth Not available.
UV 2 out of 12
Pollen .50 out of 12
Air Quality Not available.
Flu Activity Not available.
METAR KSMQ 041753Z AUTO 18004KT 4SM -RA BR FEW075 OVC090 06/03 A2983 RMK AO2 RAB10 SLP102 P0004 60042 T00560033 10056 20017 58014 TSNO

More Conditions Fewer Conditions

Pressure 29.83 in
Visibility 4.0 miles
Clouds Few 7500 ft
Overcast 9000 ft
Windchill 42 °F
Dew Point 40 °F
Humidity 90%
Rainfall 0.62 in
Snow Depth Not available.
UV 2 out of 12
Pollen .50 out of 12
Air Quality Not available.
Flu Activity Not available.
METAR KSMQ 041753Z AUTO 18004KT 4SM -RA BR FEW075 OVC090 06/03 A2983 RMK AO2 RAB10 SLP102 P0004 60042 T00560033 10056 20017 58014 TSNO

More Conditions Fewer Conditions

10-Day Weather Forecast

Almanac

Astronomy

Mar. 04, 2015 Rise Set
Actual Time
Civil Twilight
Nautical Twilight
Astronomical Twilight
Moon
Length of Visible Light
Length of Day
Tomorrow will be .
, % of the Moon is Illuminated

Today's Extremes

State Highs State Lows

Community

WunderPhotos

Upload Photos

1,802,523 photos uploaded!

WunderBlogs® & News

Nearby

Air Quality

  Air Quality AQ Index Pollutant
Not available.

Snow Depth

Station Depth Elevation

Earthquake Activity

City Distance Mag. Time & Date
Minimum magnitude displayed is 2.5.

Coastal Water Temperatures

Place Temperature

Nearby Weather Stations

Winter Storm Warning
Statement as of 8:34 AM EST on March 04, 2015

... Winter Storm Warning remains in effect from 7 PM this evening
to 7 PM EST Thursday...

* hazard types... a steady accumulating snow... possibly heavy at
times... from tonight into Thursday.

* Snow accumulations... 4 to 8 inches.

* Timing... rain will change to snow tonight and the snow will
continue into Thursday.

* Impacts... widespread and substantial impacts on travel are
expected for late tonight and Thursday.

Precautionary/preparedness actions...

This Winter Storm Warning means that significant amounts of snow
are expected. The snow will make travel very hazardous or
impossible.